createdAt,value
2022-07-27T00:02:04.314Z,51.00
2022-07-27T00:04:51.128Z,50.70
2022-07-27T00:07:37.868Z,50.90
2022-07-27T00:10:24.516Z,51.40
2022-07-27T00:13:11.162Z,51.30
2022-07-27T00:15:59.394Z,51.20
2022-07-27T00:18:45.828Z,51.30
2022-07-27T00:21:32.388Z,51.70
2022-07-27T00:24:19.056Z,51.60
2022-07-27T00:27:05.493Z,51.10
2022-07-27T00:29:52.308Z,51.60
2022-07-27T00:32:40.569Z,52.00
2022-07-27T00:35:27.724Z,52.00
2022-07-27T00:38:14.472Z,51.40
2022-07-27T00:41:00.999Z,51.40
2022-07-27T00:43:52.613Z,51.80
2022-07-27T00:46:39.653Z,51.60
2022-07-27T00:49:28.505Z,51.50
2022-07-27T00:52:15.661Z,51.40
2022-07-27T00:55:02.548Z,51.00
2022-07-27T00:57:58.352Z,51.20
2022-07-27T01:00:46.843Z,51.80
2022-07-27T01:03:33.732Z,51.50
2022-07-27T01:06:26.842Z,51.20
2022-07-27T01:09:31.792Z,50.90
2022-07-27T01:12:21.584Z,51.50
2022-07-27T01:15:09.077Z,51.30
2022-07-27T01:17:56.034Z,50.90
2022-07-27T01:20:42.940Z,50.80
2022-07-27T01:23:33.289Z,50.40
2022-07-27T01:26:20.205Z,50.10
2022-07-27T01:29:07.195Z,49.80
2022-07-27T01:31:53.922Z,49.80
2022-07-27T01:34:40.706Z,50.60
2022-07-27T01:37:27.257Z,50.30
2022-07-27T01:40:15.731Z,50.20
2022-07-27T01:43:02.456Z,50.20
2022-07-27T01:45:49.184Z,49.70
2022-07-27T01:48:35.737Z,49.80
2022-07-27T01:51:22.335Z,49.70
2022-07-27T01:54:09.373Z,49.60
2022-07-27T01:56:57.538Z,49.70
2022-07-27T01:59:43.985Z,49.70
2022-07-27T02:02:30.789Z,49.50
2022-07-27T02:05:17.656Z,49.00
2022-07-27T02:08:04.634Z,49.50
2022-07-27T02:11:08.506Z,49.20
2022-07-27T02:13:56.505Z,49.40
2022-07-27T02:16:43.120Z,50.10
2022-07-27T02:19:29.977Z,50.30
2022-07-27T02:22:17.081Z,50.40
2022-07-27T02:25:04.437Z,50.30
2022-07-27T02:27:51.308Z,50.30
2022-07-27T02:30:39.292Z,51.40
2022-07-27T02:33:25.801Z,51.30
2022-07-27T02:36:12.762Z,50.90
2022-07-27T02:38:59.785Z,51.10
2022-07-27T02:41:47.640Z,50.90
2022-07-27T02:44:35.082Z,51.30
2022-07-27T02:47:23.403Z,51.60
2022-07-27T02:50:10.797Z,51.50
2022-07-27T02:52:57.653Z,51.40
2022-07-27T02:55:44.474Z,51.20
2022-07-27T02:58:31.269Z,50.80
2022-07-27T03:01:18.001Z,50.10
2022-07-27T03:04:06.527Z,49.80
2022-07-27T03:06:53.200Z,49.80
2022-07-27T03:09:39.766Z,49.60
2022-07-27T03:12:26.681Z,49.70
2022-07-27T03:15:13.485Z,50.00
2022-07-27T03:18:00.136Z,49.80
2022-07-27T03:20:48.153Z,50.10
2022-07-27T03:23:34.926Z,50.40
2022-07-27T03:26:21.759Z,50.80
2022-07-27T03:29:08.895Z,50.70
2022-07-27T03:31:55.818Z,50.80
2022-07-27T03:34:43.948Z,51.30
2022-07-27T03:37:32.369Z,50.90
2022-07-27T03:40:19.261Z,50.70
2022-07-27T03:43:05.840Z,50.70
2022-07-27T03:45:52.326Z,50.60
2022-07-27T03:48:39.664Z,50.40
2022-07-27T03:51:26.925Z,50.30
2022-07-27T03:54:15.252Z,50.30
2022-07-27T03:57:02.184Z,50.10
2022-07-27T03:59:51.506Z,50.20
2022-07-27T04:02:40.784Z,50.10
2022-07-27T04:05:29.404Z,50.30
2022-07-27T04:08:17.544Z,50.50
2022-07-27T04:11:05.395Z,50.70
2022-07-27T04:13:56.120Z,50.20
2022-07-27T04:16:42.702Z,50.50
2022-07-27T04:19:29.353Z,51.20
2022-07-27T04:22:16.146Z,51.40
2022-07-27T04:25:02.936Z,51.90
2022-07-27T04:27:51.053Z,52.50
2022-07-27T04:30:37.660Z,52.40
2022-07-27T04:33:24.227Z,52.60
2022-07-27T04:36:10.962Z,52.20
2022-07-27T04:38:59.775Z,52.70
2022-07-27T04:41:46.985Z,53.10
2022-07-27T04:44:35.190Z,53.10
2022-07-27T04:47:21.752Z,53.70
2022-07-27T04:50:10.065Z,53.70
2022-07-27T04:52:57.877Z,53.40
2022-07-27T04:55:46.852Z,53.10
2022-07-27T04:58:33.506Z,53.40
2022-07-27T05:01:22.963Z,53.50
2022-07-27T05:04:09.881Z,53.10
2022-07-27T05:06:56.284Z,52.90
2022-07-27T05:09:43.365Z,52.40
2022-07-27T05:12:30.198Z,52.70
2022-07-27T05:15:17.538Z,52.30
2022-07-27T05:18:05.601Z,53.00
2022-07-27T05:20:52.384Z,53.10
2022-07-27T05:23:39.164Z,52.80
2022-07-27T05:26:26.269Z,53.30
2022-07-27T05:29:13.573Z,53.30
2022-07-27T05:32:00.579Z,52.40
2022-07-27T05:34:48.503Z,52.70
2022-07-27T05:37:35.397Z,53.20
2022-07-27T05:40:22.091Z,53.80
2022-07-27T05:43:08.603Z,54.20
2022-07-27T05:45:55.891Z,54.20
2022-07-27T05:48:42.349Z,54.10
2022-07-27T05:51:31.525Z,54.00
2022-07-27T05:54:19.459Z,54.50
2022-07-27T05:57:06.315Z,54.80
2022-07-27T05:59:54.501Z,54.70
2022-07-27T06:02:41.656Z,54.70
2022-07-27T06:05:28.333Z,54.60
2022-07-27T06:08:15.515Z,54.20
2022-07-27T06:11:02.012Z,53.90
2022-07-27T06:13:50.603Z,54.20
2022-07-27T06:16:37.636Z,53.60
2022-07-27T06:19:24.408Z,53.70
2022-07-27T06:22:22.838Z,53.80
2022-07-27T06:25:11.121Z,53.90
2022-07-27T06:27:57.691Z,53.80
2022-07-27T06:30:44.305Z,53.30
2022-07-27T06:33:31.674Z,52.80
2022-07-27T06:36:18.177Z,53.00
2022-07-27T06:39:04.908Z,52.90
2022-07-27T06:41:57.920Z,54.70
2022-07-27T06:44:45.227Z,53.60
2022-07-27T06:47:31.775Z,53.10
2022-07-27T06:50:22.166Z,52.70
2022-07-27T06:53:08.893Z,52.90
2022-07-27T06:55:55.817Z,53.50
2022-07-27T06:58:43.657Z,53.50
2022-07-27T07:01:30.508Z,52.70
2022-07-27T07:04:17.743Z,54.00
2022-07-27T07:07:10.472Z,51.00
2022-07-27T07:09:57.013Z,52.70
2022-07-27T07:12:43.953Z,51.90
2022-07-27T07:15:34.212Z,52.00
2022-07-27T07:18:20.904Z,51.80
2022-07-27T07:21:08.102Z,52.50
2022-07-27T07:23:54.586Z,52.40
2022-07-27T07:26:41.190Z,52.60
2022-07-27T07:29:28.013Z,51.70
2022-07-27T07:32:16.261Z,52.20
2022-07-27T07:35:03.977Z,51.50
2022-07-27T07:37:50.932Z,51.10
2022-07-27T07:40:45.320Z,51.50
2022-07-27T07:43:32.077Z,51.80
2022-07-27T07:46:19.125Z,51.90
2022-07-27T07:49:07.236Z,52.20
2022-07-27T07:51:53.832Z,52.50
2022-07-27T07:54:40.540Z,53.30
2022-07-27T07:57:28.030Z,51.60
2022-07-27T08:00:15.606Z,50.50
2022-07-27T08:03:02.419Z,50.90
2022-07-27T08:05:50.927Z,51.70
2022-07-27T08:08:37.862Z,51.90
2022-07-27T08:11:24.381Z,51.60
2022-07-27T08:14:11.267Z,50.00
2022-07-27T08:16:57.842Z,50.00
2022-07-27T08:19:44.550Z,50.60
2022-07-27T08:22:32.521Z,49.20
2022-07-27T08:25:20.338Z,50.70
2022-07-27T08:28:07.596Z,48.80
2022-07-27T08:30:57.340Z,48.80
2022-07-27T08:33:44.104Z,49.20
2022-07-27T08:36:30.942Z,49.10
2022-07-27T08:39:52.967Z,49.50
2022-07-27T08:42:25.795Z,48.50
2022-07-27T08:45:16.053Z,49.40
2022-07-27T08:48:03.134Z,48.30
2022-07-27T08:50:50.352Z,48.50
2022-07-27T08:53:53.023Z,48.90
2022-07-27T08:56:41.873Z,48.80
2022-07-27T08:59:29.574Z,48.00
2022-07-27T09:02:16.694Z,47.60
2022-07-27T09:05:05.627Z,48.50
2022-07-27T09:07:52.989Z,48.30
2022-07-27T09:10:40.281Z,47.40
2022-07-27T09:13:30.068Z,46.70
2022-07-27T09:16:19.062Z,47.50
2022-07-27T09:19:08.216Z,47.60
2022-07-27T09:21:56.979Z,47.70
2022-07-27T09:25:02.884Z,49.20
2022-07-27T09:27:54.065Z,48.10
2022-07-27T09:30:44.242Z,48.80
2022-07-27T09:33:32.825Z,49.20
2022-07-27T09:36:22.819Z,48.20
2022-07-27T09:39:09.292Z,48.10
2022-07-27T09:41:57.678Z,47.80
2022-07-27T09:44:53.168Z,48.00
2022-07-27T09:47:42.028Z,48.10
2022-07-27T09:50:32.393Z,48.40
2022-07-27T09:53:42.533Z,48.50
2022-07-27T09:56:31.695Z,48.10
2022-07-27T09:59:20.296Z,48.30
2022-07-27T10:02:07.252Z,48.10
2022-07-27T10:04:56.506Z,48.70
2022-07-27T10:07:43.602Z,48.70
2022-07-27T10:10:30.623Z,49.10
2022-07-27T10:13:17.077Z,49.30
2022-07-27T10:16:05.760Z,47.90
2022-07-27T10:19:01.166Z,48.10
2022-07-27T10:21:50.897Z,48.50
2022-07-27T10:24:37.634Z,48.80
2022-07-27T10:27:28.986Z,48.80
2022-07-27T10:30:17.042Z,48.00
2022-07-27T10:33:15.790Z,46.20
2022-07-27T10:36:04.175Z,46.30
2022-07-27T10:38:56.430Z,45.30
2022-07-27T10:41:43.804Z,46.80
2022-07-27T10:44:31.418Z,46.90
2022-07-27T10:47:30.121Z,45.90
2022-07-27T10:50:32.310Z,45.70
2022-07-27T10:53:55.116Z,44.90
2022-07-27T10:56:49.711Z,45.10
2022-07-27T11:00:10.170Z,43.00
2022-07-27T11:02:59.517Z,43.30
2022-07-27T11:06:01.991Z,43.60
2022-07-27T11:09:53.141Z,43.90
2022-07-27T11:12:11.552Z,44.00
2022-07-27T11:14:59.681Z,43.90
2022-07-27T11:17:59.381Z,44.10
2022-07-27T11:20:50.221Z,44.00
2022-07-27T11:23:52.410Z,44.00
2022-07-27T11:26:41.620Z,43.30
2022-07-27T11:29:33.873Z,42.40
2022-07-27T11:32:36.508Z,42.30
2022-07-27T11:35:26.052Z,42.90
2022-07-27T11:38:12.614Z,42.40
2022-07-27T11:41:12.785Z,40.60
2022-07-27T11:44:07.929Z,42.00
2022-07-27T11:47:01.733Z,42.40
2022-07-27T11:49:48.898Z,44.20
2022-07-27T11:52:35.537Z,45.10
2022-07-27T11:55:22.103Z,41.90
2022-07-27T11:58:09.021Z,40.70
2022-07-27T12:00:55.969Z,41.20
2022-07-27T12:03:47.236Z,40.80
2022-07-27T12:06:38.884Z,39.90
2022-07-27T12:09:26.544Z,40.10
2022-07-27T12:12:20.127Z,40.20
2022-07-27T12:18:24.761Z,39.80
2022-07-27T12:21:18.836Z,40.50
2022-07-27T12:24:06.022Z,40.90
2022-07-27T12:27:07.100Z,41.10
2022-07-27T12:29:59.265Z,42.00
2022-07-27T12:32:46.520Z,40.40
2022-07-27T12:35:38.812Z,40.10
2022-07-27T12:38:38.567Z,40.90
2022-07-27T12:41:26.562Z,40.00
2022-07-27T12:44:15.654Z,39.70
2022-07-27T12:47:27.811Z,39.30
2022-07-27T12:50:16.887Z,39.20
2022-07-27T12:53:03.868Z,40.70
2022-07-27T12:55:51.892Z,41.40
2022-07-27T12:58:57.897Z,40.60
2022-07-27T13:01:44.820Z,41.20
2022-07-27T13:04:31.655Z,41.30
2022-07-27T13:07:19.591Z,41.60
2022-07-27T13:10:08.103Z,40.80
2022-07-27T13:12:56.504Z,41.30
2022-07-27T13:15:43.190Z,40.50
2022-07-27T13:18:29.855Z,40.80
2022-07-27T13:21:16.336Z,41.20
2022-07-27T13:24:03.253Z,39.80
2022-07-27T13:26:50.369Z,40.10
2022-07-27T13:29:38.558Z,40.10
2022-07-27T13:32:26.350Z,40.40
2022-07-27T13:35:13.534Z,38.30
2022-07-27T13:38:03.336Z,39.70
2022-07-27T13:40:50.174Z,39.30
2022-07-27T13:43:36.937Z,38.50
2022-07-27T13:46:25.220Z,37.80
2022-07-27T13:49:12.670Z,38.30
2022-07-27T13:52:01.848Z,39.20
2022-07-27T13:54:48.444Z,37.50
2022-07-27T13:57:35.500Z,39.00
2022-07-27T14:00:22.382Z,38.50
2022-07-27T14:03:11.465Z,37.80
2022-07-27T14:05:58.271Z,38.10
2022-07-27T14:08:46.979Z,38.50
2022-07-27T14:11:34.357Z,38.60
2022-07-27T14:14:21.772Z,38.30
2022-07-27T14:17:13.904Z,39.40
2022-07-27T14:20:02.125Z,37.80
2022-07-27T14:22:50.305Z,39.40
2022-07-27T14:25:36.768Z,39.60
2022-07-27T14:28:24.372Z,39.80
2022-07-27T14:31:13.100Z,40.10
2022-07-27T14:33:59.514Z,39.80
2022-07-27T14:36:47.656Z,38.50
2022-07-27T14:39:34.248Z,37.30
2022-07-27T14:42:23.652Z,38.30
2022-07-27T14:45:11.611Z,37.10
2022-07-27T14:47:58.428Z,38.40
2022-07-27T14:50:45.543Z,39.90
2022-07-27T14:53:33.676Z,38.40
2022-07-27T14:56:20.544Z,39.20
2022-07-27T14:59:07.033Z,38.10
2022-07-27T15:01:54.227Z,38.20
2022-07-27T15:04:41.076Z,38.20
2022-07-27T15:07:27.577Z,39.10
2022-07-27T15:10:15.625Z,38.80
2022-07-27T15:13:03.972Z,37.20
2022-07-27T15:15:52.724Z,37.00
2022-07-27T15:18:39.764Z,38.10
2022-07-27T15:21:26.774Z,36.80
2022-07-27T15:24:14.533Z,37.00
2022-07-27T15:27:02.653Z,37.70
2022-07-27T15:29:49.760Z,36.80
2022-07-27T15:32:36.473Z,35.60
2022-07-27T15:35:23.355Z,36.30
2022-07-27T15:38:10.049Z,36.50
2022-07-27T15:40:56.802Z,36.20
2022-07-27T15:43:48.623Z,35.90
2022-07-27T15:46:35.540Z,35.40
2022-07-27T15:49:22.200Z,35.60
2022-07-27T15:52:09.221Z,35.70
2022-07-27T15:54:55.946Z,36.30
2022-07-27T15:57:43.045Z,36.30
2022-07-27T16:00:35.530Z,35.40
2022-07-27T16:03:26.926Z,34.70
2022-07-27T16:06:15.829Z,35.40
2022-07-27T16:09:02.576Z,35.70
2022-07-27T16:11:49.395Z,35.30
2022-07-27T16:14:35.970Z,36.30
2022-07-27T16:17:24.268Z,35.40
2022-07-27T16:20:11.534Z,37.00
2022-07-27T16:22:58.087Z,36.70
2022-07-27T16:26:02.715Z,37.00
2022-07-27T16:28:53.205Z,37.10
2022-07-27T16:31:39.934Z,36.70
2022-07-27T16:34:29.451Z,37.20
2022-07-27T16:37:16.109Z,38.40
2022-07-27T16:40:02.853Z,37.90
2022-07-27T16:42:49.412Z,39.50
2022-07-27T16:45:35.947Z,39.80
2022-07-27T16:48:22.895Z,39.00
2022-07-27T16:51:11.820Z,39.00
2022-07-27T16:53:58.222Z,38.70
2022-07-27T16:56:44.755Z,39.50
2022-07-27T16:59:31.468Z,40.60
2022-07-27T17:02:18.802Z,41.30
2022-07-27T17:05:06.627Z,41.30
2022-07-27T17:07:55.061Z,41.80
2022-07-27T17:10:42.116Z,42.00
2022-07-27T17:13:33.679Z,42.50
2022-07-27T17:16:21.221Z,42.40
2022-07-27T17:19:07.874Z,43.30
2022-07-27T17:21:54.580Z,42.60
2022-07-27T17:24:42.549Z,42.50
2022-07-27T17:27:31.408Z,43.20
2022-07-27T17:30:18.493Z,42.10
2022-07-27T17:33:05.382Z,42.40
2022-07-27T17:35:51.975Z,43.00
2022-07-27T17:38:42.150Z,44.40
2022-07-27T17:41:31.853Z,44.50
2022-07-27T17:44:18.509Z,43.70
2022-07-27T17:47:05.644Z,43.60
2022-07-27T17:49:52.309Z,43.70
2022-07-27T17:52:40.698Z,43.80
2022-07-27T17:55:27.281Z,43.30
2022-07-27T17:58:17.005Z,43.20
2022-07-27T18:01:04.042Z,41.70
2022-07-27T18:03:50.919Z,41.80
2022-07-27T18:06:37.670Z,42.80
2022-07-27T18:09:24.369Z,42.50
2022-07-27T18:12:11.178Z,42.00
2022-07-27T18:15:16.794Z,42.40
2022-07-27T18:18:04.365Z,42.20
2022-07-27T18:20:53.027Z,42.40
2022-07-27T18:23:40.669Z,42.50
2022-07-27T18:26:27.251Z,43.10
2022-07-27T18:29:16.073Z,42.70
2022-07-27T18:32:04.472Z,42.70
2022-07-27T18:34:51.040Z,42.60
2022-07-27T18:37:37.857Z,42.80
2022-07-27T18:40:24.725Z,42.70
2022-07-27T18:43:11.406Z,42.70
2022-07-27T18:45:58.150Z,43.90
2022-07-27T18:48:47.055Z,44.10
2022-07-27T18:51:37.176Z,43.90
2022-07-27T18:54:24.280Z,43.70
2022-07-27T18:57:11.224Z,44.00
2022-07-27T18:59:58.053Z,44.10
2022-07-27T19:02:44.964Z,44.30
2022-07-27T19:05:41.642Z,44.10
2022-07-27T19:08:28.621Z,43.90
2022-07-27T19:11:15.717Z,44.10
2022-07-27T19:14:04.799Z,44.10
2022-07-27T19:16:51.830Z,44.10
2022-07-27T19:19:38.295Z,44.50
2022-07-27T19:22:27.288Z,45.00
2022-07-27T19:25:16.741Z,44.60
2022-07-27T19:28:03.960Z,44.50
2022-07-27T19:30:51.022Z,44.10
2022-07-27T19:33:37.926Z,44.10
2022-07-27T19:36:24.806Z,44.10
2022-07-27T19:39:17.334Z,44.90
2022-07-27T19:42:04.595Z,44.60
2022-07-27T19:44:51.467Z,45.00
2022-07-27T19:47:38.222Z,44.90
2022-07-27T19:50:24.968Z,44.80
2022-07-27T19:53:11.508Z,45.30
2022-07-27T19:56:00.279Z,45.80
2022-07-27T19:58:46.913Z,45.10
2022-07-27T20:01:34.234Z,45.10
2022-07-27T20:04:20.681Z,44.90
2022-07-27T20:07:09.888Z,44.80
2022-07-27T20:09:56.901Z,44.80
2022-07-27T20:12:44.951Z,45.10
2022-07-27T20:15:32.215Z,45.40
2022-07-27T20:18:21.816Z,45.20
2022-07-27T20:21:20.171Z,45.10
2022-07-27T20:24:10.119Z,45.60
2022-07-27T20:26:57.688Z,46.10
2022-07-27T20:29:45.655Z,45.70
2022-07-27T20:32:32.182Z,46.00
2022-07-27T20:35:19.245Z,46.10
2022-07-27T20:38:05.822Z,45.70
2022-07-27T20:40:53.877Z,45.80
2022-07-27T20:43:40.545Z,45.60
2022-07-27T20:46:28.939Z,45.50
2022-07-27T20:49:16.884Z,45.70
2022-07-27T20:52:04.331Z,45.90
2022-07-27T20:54:52.684Z,45.80
2022-07-27T20:57:39.532Z,46.00
2022-07-27T21:00:29.217Z,45.60
2022-07-27T21:03:17.925Z,46.40
2022-07-27T21:06:04.566Z,46.60
2022-07-27T21:08:51.204Z,46.00
2022-07-27T21:11:39.244Z,46.10
2022-07-27T21:14:25.692Z,45.60
2022-07-27T21:17:12.432Z,45.40
2022-07-27T21:20:00.542Z,46.30
2022-07-27T21:23:07.088Z,46.90
2022-07-27T21:25:53.566Z,46.20
2022-07-27T21:28:40.323Z,46.40
2022-07-27T21:31:29.856Z,45.60
2022-07-27T21:34:18.602Z,45.80
2022-07-27T21:37:06.505Z,46.60
2022-07-27T21:39:52.940Z,47.20
2022-07-27T21:42:39.482Z,47.40
2022-07-27T21:45:26.494Z,46.70
2022-07-27T21:48:13.088Z,46.00
2022-07-27T21:51:00.093Z,46.20
2022-07-27T21:53:48.715Z,46.00
2022-07-27T21:56:41.858Z,45.60
2022-07-27T21:59:29.735Z,44.90
2022-07-27T22:02:16.512Z,45.20
2022-07-27T22:05:03.509Z,44.00
2022-07-27T22:07:50.182Z,43.40
2022-07-27T22:10:38.730Z,44.30
2022-07-27T22:13:25.153Z,44.70
2022-07-27T22:16:13.461Z,44.50
2022-07-27T22:19:00.168Z,44.00
2022-07-27T22:21:48.691Z,44.10
2022-07-27T22:24:35.518Z,44.40
2022-07-27T22:27:23.649Z,44.60
2022-07-27T22:30:10.818Z,44.60
2022-07-27T22:32:57.696Z,44.80
2022-07-27T22:35:44.370Z,45.00
2022-07-27T22:38:31.067Z,45.50
2022-07-27T22:41:17.670Z,44.80
2022-07-27T22:44:05.996Z,43.70
2022-07-27T22:46:52.942Z,44.00
2022-07-27T22:49:39.872Z,44.20
2022-07-27T22:52:26.797Z,43.80
2022-07-27T22:55:13.515Z,43.90
2022-07-27T22:58:00.277Z,44.20
2022-07-27T23:00:48.933Z,44.30
2022-07-27T23:03:35.633Z,44.90
2022-07-27T23:06:22.235Z,47.20
2022-07-27T23:09:09.633Z,46.80
2022-07-27T23:11:56.297Z,47.20
2022-07-27T23:14:43.116Z,47.60
2022-07-27T23:17:37.237Z,47.80
2022-07-27T23:20:23.970Z,48.40
2022-07-27T23:23:16.670Z,48.00
2022-07-27T23:26:03.685Z,47.90
2022-07-27T23:28:50.490Z,47.50
2022-07-27T23:31:37.139Z,48.10
2022-07-27T23:34:28.960Z,48.20
2022-07-27T23:37:15.589Z,48.00
2022-07-27T23:40:03.512Z,47.90
2022-07-27T23:42:50.164Z,48.80
2022-07-27T23:45:37.042Z,49.40
2022-07-27T23:48:25.173Z,49.30
2022-07-27T23:51:18.732Z,49.50
2022-07-27T23:54:05.500Z,50.00
2022-07-27T23:56:52.093Z,50.30
2022-07-27T23:59:38.739Z,49.90
